sensor_id;sensor_type;location;lat;lon;timestamp;pressure;altitude;pressure_sealevel;temperature;humidity
13934;BME280;7039;52.168;9.866;2023-03-15T00:01:32;99879.44;;;3.09;71.03
13934;BME280;7039;52.168;9.866;2023-03-15T00:03:58;99878.09;;;2.96;71.26
13934;BME280;7039;52.168;9.866;2023-03-15T00:06:25;99888.16;;;3.05;71.04
13934;BME280;7039;52.168;9.866;2023-03-15T00:08:53;99883.84;;;3.05;71.24
13934;BME280;7039;52.168;9.866;2023-03-15T00:11:19;99885.06;;;2.92;71.42
13934;BME280;7039;52.168;9.866;2023-03-15T00:13:46;99889.41;;;2.90;71.34
13934;BME280;7039;52.168;9.866;2023-03-15T00:16:12;99895.34;;;2.93;71.28
13934;BME280;7039;52.168;9.866;2023-03-15T00:18:41;99909.88;;;2.95;71.43
13934;BME280;7039;52.168;9.866;2023-03-15T00:21:08;99902.13;;;2.96;71.36
13934;BME280;7039;52.168;9.866;2023-03-15T00:23:34;99916.06;;;2.89;71.51
13934;BME280;7039;52.168;9.866;2023-03-15T00:26:02;99920.13;;;2.98;71.15
13934;BME280;7039;52.168;9.866;2023-03-15T00:28:28;99912.34;;;2.99;70.90
13934;BME280;7039;52.168;9.866;2023-03-15T00:31:03;99913.97;;;3.02;70.78
13934;BME280;7039;52.168;9.866;2023-03-15T00:33:29;99917.69;;;2.93;70.93
13934;BME280;7039;52.168;9.866;2023-03-15T00:36:01;99921.94;;;2.94;70.67
13934;BME280;7039;52.168;9.866;2023-03-15T00:38:29;99922.38;;;3.08;70.49
13934;BME280;7039;52.168;9.866;2023-03-15T00:40:56;99922.72;;;2.96;70.44
13934;BME280;7039;52.168;9.866;2023-03-15T00:43:24;99928.81;;;3.25;70.13
13934;BME280;7039;52.168;9.866;2023-03-15T00:45:50;99919.31;;;2.96;70.47
13934;BME280;7039;52.168;9.866;2023-03-15T00:48:16;99931.81;;;3.09;70.05
13934;BME280;7039;52.168;9.866;2023-03-15T00:50:43;99938.94;;;3.00;70.46
13934;BME280;7039;52.168;9.866;2023-03-15T00:53:09;99942.16;;;3.08;70.38
13934;BME280;7039;52.168;9.866;2023-03-15T00:55:36;99940.97;;;2.88;70.52
13934;BME280;7039;52.168;9.866;2023-03-15T00:58:02;99938.28;;;2.93;70.46
13934;BME280;7039;52.168;9.866;2023-03-15T01:00:30;99944.22;;;2.95;70.43
13934;BME280;7039;52.168;9.866;2023-03-15T01:02:56;99948.50;;;2.96;70.25
13934;BME280;7039;52.168;9.866;2023-03-15T01:05:23;99944.34;;;2.90;70.32
13934;BME280;7039;52.168;9.866;2023-03-15T01:07:51;99941.44;;;3.03;70.14
13934;BME280;7039;52.168;9.866;2023-03-15T01:10:19;99945.78;;;3.01;69.99
13934;BME280;7039;52.168;9.866;2023-03-15T01:12:45;99944.88;;;3.02;69.88
13934;BME280;7039;52.168;9.866;2023-03-15T01:15:13;99946.00;;;2.93;70.36
13934;BME280;7039;52.168;9.866;2023-03-15T01:17:41;99946.78;;;2.95;70.01
13934;BME280;7039;52.168;9.866;2023-03-15T01:20:09;99952.34;;;3.11;69.56
13934;BME280;7039;52.168;9.866;2023-03-15T01:22:37;99947.44;;;3.03;69.73
13934;BME280;7039;52.168;9.866;2023-03-15T01:25:04;99949.00;;;3.09;69.49
13934;BME280;7039;52.168;9.866;2023-03-15T01:27:31;99945.31;;;2.86;69.57
13934;BME280;7039;52.168;9.866;2023-03-15T01:29:57;99950.84;;;3.04;69.02
13934;BME280;7039;52.168;9.866;2023-03-15T01:32:24;99940.50;;;3.05;68.96
13934;BME280;7039;52.168;9.866;2023-03-15T01:34:52;99944.09;;;3.00;68.73
13934;BME280;7039;52.168;9.866;2023-03-15T01:37:19;99946.38;;;3.10;68.66
13934;BME280;7039;52.168;9.866;2023-03-15T01:39:48;99938.63;;;3.10;67.65
13934;BME280;7039;52.168;9.866;2023-03-15T01:42:15;99944.19;;;3.26;68.24
13934;BME280;7039;52.168;9.866;2023-03-15T01:44:48;99945.81;;;3.30;67.65
13934;BME280;7039;52.168;9.866;2023-03-15T01:47:15;99948.41;;;3.29;67.73
13934;BME280;7039;52.168;9.866;2023-03-15T01:49:43;99951.13;;;3.24;68.54
13934;BME280;7039;52.168;9.866;2023-03-15T01:52:15;99958.66;;;3.01;68.78
13934;BME280;7039;52.168;9.866;2023-03-15T01:54:44;99948.38;;;3.01;68.29
13934;BME280;7039;52.168;9.866;2023-03-15T01:57:16;99955.81;;;3.11;67.73
13934;BME280;7039;52.168;9.866;2023-03-15T01:59:49;99947.03;;;3.17;67.75
13934;BME280;7039;52.168;9.866;2023-03-15T02:02:19;99932.50;;;3.16;67.50
13934;BME280;7039;52.168;9.866;2023-03-15T02:04:50;99947.41;;;3.05;67.55
13934;BME280;7039;52.168;9.866;2023-03-15T02:07:22;99947.31;;;3.38;67.32
13934;BME280;7039;52.168;9.866;2023-03-15T02:09:56;99948.50;;;3.27;67.17
13934;BME280;7039;52.168;9.866;2023-03-15T02:12:26;99937.44;;;3.22;67.44
13934;BME280;7039;52.168;9.866;2023-03-15T02:14:53;99951.06;;;3.27;67.22
13934;BME280;7039;52.168;9.866;2023-03-15T02:17:26;99961.72;;;3.45;67.27
13934;BME280;7039;52.168;9.866;2023-03-15T02:19:59;99966.81;;;3.48;66.23
13934;BME280;7039;52.168;9.866;2023-03-15T02:22:38;99963.56;;;3.41;66.37
13934;BME280;7039;52.168;9.866;2023-03-15T02:25:11;99968.00;;;3.66;67.04
13934;BME280;7039;52.168;9.866;2023-03-15T02:27:44;99968.06;;;3.63;66.99
13934;BME280;7039;52.168;9.866;2023-03-15T02:30:10;99970.75;;;3.60;66.72
13934;BME280;7039;52.168;9.866;2023-03-15T02:32:37;99980.38;;;3.54;66.54
13934;BME280;7039;52.168;9.866;2023-03-15T02:35:04;99963.50;;;3.72;66.73
13934;BME280;7039;52.168;9.866;2023-03-15T02:37:31;99964.97;;;3.51;66.89
13934;BME280;7039;52.168;9.866;2023-03-15T02:39:57;99973.53;;;3.52;67.59
13934;BME280;7039;52.168;9.866;2023-03-15T02:42:24;99963.84;;;3.30;67.88
13934;BME280;7039;52.168;9.866;2023-03-15T02:44:53;99975.63;;;3.39;67.99
13934;BME280;7039;52.168;9.866;2023-03-15T02:47:23;99992.13;;;3.63;67.93
13934;BME280;7039;52.168;9.866;2023-03-15T02:49:51;99984.03;;;3.46;68.66
13934;BME280;7039;52.168;9.866;2023-03-15T02:52:19;99986.03;;;3.36;69.17
13934;BME280;7039;52.168;9.866;2023-03-15T02:54:45;99988.78;;;3.30;69.29
13934;BME280;7039;52.168;9.866;2023-03-15T02:57:13;99989.25;;;3.43;69.64
13934;BME280;7039;52.168;9.866;2023-03-15T02:59:40;99997.28;;;3.63;69.17
13934;BME280;7039;52.168;9.866;2023-03-15T03:02:09;99996.41;;;3.64;69.79
13934;BME280;7039;52.168;9.866;2023-03-15T03:04:36;99997.81;;;3.45;70.84
13934;BME280;7039;52.168;9.866;2023-03-15T03:07:03;100009.84;;;3.44;71.39
13934;BME280;7039;52.168;9.866;2023-03-15T03:09:30;100001.81;;;3.25;72.12
13934;BME280;7039;52.168;9.866;2023-03-15T03:11:57;100002.94;;;3.46;71.81
13934;BME280;7039;52.168;9.866;2023-03-15T03:14:23;100018.78;;;3.32;72.42
13934;BME280;7039;52.168;9.866;2023-03-15T03:19:16;100027.81;;;3.47;72.65
13934;BME280;7039;52.168;9.866;2023-03-15T03:21:43;100027.47;;;3.28;73.84
13934;BME280;7039;52.168;9.866;2023-03-15T03:24:10;100030.41;;;3.16;74.86
13934;BME280;7039;52.168;9.866;2023-03-15T03:26:40;100030.34;;;3.18;75.37
13934;BME280;7039;52.168;9.866;2023-03-15T03:29:09;100036.53;;;2.78;77.34
13934;BME280;7039;52.168;9.866;2023-03-15T03:31:36;100036.94;;;2.95;77.94
13934;BME280;7039;52.168;9.866;2023-03-15T03:34:02;100042.53;;;3.11;78.02
13934;BME280;7039;52.168;9.866;2023-03-15T03:36:30;100050.94;;;3.18;77.98
13934;BME280;7039;52.168;9.866;2023-03-15T03:38:58;100046.38;;;2.96;79.20
13934;BME280;7039;52.168;9.866;2023-03-15T03:41:24;100053.19;;;2.97;79.20
13934;BME280;7039;52.168;9.866;2023-03-15T03:43:50;100059.13;;;3.01;79.42
13934;BME280;7039;52.168;9.866;2023-03-15T03:46:17;100056.94;;;2.85;79.81
13934;BME280;7039;52.168;9.866;2023-03-15T03:48:44;100073.41;;;3.14;79.45
13934;BME280;7039;52.168;9.866;2023-03-15T03:51:10;100075.53;;;2.98;79.58
13934;BME280;7039;52.168;9.866;2023-03-15T03:53:38;100086.31;;;3.12;80.25
13934;BME280;7039;52.168;9.866;2023-03-15T03:56:05;100084.19;;;2.96;80.32
13934;BME280;7039;52.168;9.866;2023-03-15T03:58:32;100088.41;;;2.98;80.83
13934;BME280;7039;52.168;9.866;2023-03-15T04:00:59;100106.09;;;2.76;81.12
13934;BME280;7039;52.168;9.866;2023-03-15T04:03:25;100094.13;;;2.75;81.21
13934;BME280;7039;52.168;9.866;2023-03-15T04:05:52;100096.72;;;2.74;81.70
13934;BME280;7039;52.168;9.866;2023-03-15T04:08:19;100098.03;;;2.90;81.55
13934;BME280;7039;52.168;9.866;2023-03-15T04:10:50;100110.53;;;2.69;82.22
13934;BME280;7039;52.168;9.866;2023-03-15T04:13:17;100111.44;;;2.68;82.48
13934;BME280;7039;52.168;9.866;2023-03-15T04:15:44;100109.91;;;2.61;82.86
13934;BME280;7039;52.168;9.866;2023-03-15T04:18:10;100122.00;;;2.56;83.60
13934;BME280;7039;52.168;9.866;2023-03-15T04:20:37;100121.56;;;2.39;83.77
13934;BME280;7039;52.168;9.866;2023-03-15T04:23:03;100126.91;;;2.67;83.38
13934;BME280;7039;52.168;9.866;2023-03-15T04:25:31;100127.22;;;2.53;83.59
13934;BME280;7039;52.168;9.866;2023-03-15T04:27:59;100123.00;;;2.50;84.28
13934;BME280;7039;52.168;9.866;2023-03-15T04:30:28;100129.28;;;2.39;84.85
13934;BME280;7039;52.168;9.866;2023-03-15T04:32:55;100138.69;;;2.38;84.42
13934;BME280;7039;52.168;9.866;2023-03-15T04:35:24;100135.38;;;2.35;84.69
13934;BME280;7039;52.168;9.866;2023-03-15T04:37:51;100151.66;;;2.35;85.03
13934;BME280;7039;52.168;9.866;2023-03-15T04:40:18;100151.72;;;2.32;85.36
13934;BME280;7039;52.168;9.866;2023-03-15T04:42:44;100159.28;;;2.40;85.55
13934;BME280;7039;52.168;9.866;2023-03-15T04:45:12;100160.88;;;2.45;85.74
13934;BME280;7039;52.168;9.866;2023-03-15T04:47:38;100171.00;;;2.53;85.41
13934;BME280;7039;52.168;9.866;2023-03-15T04:50:06;100165.97;;;2.47;85.70
13934;BME280;7039;52.168;9.866;2023-03-15T04:52:33;100155.56;;;2.51;85.56
13934;BME280;7039;52.168;9.866;2023-03-15T04:54:59;100177.38;;;2.74;84.91
13934;BME280;7039;52.168;9.866;2023-03-15T04:57:26;100176.97;;;2.55;85.46
13934;BME280;7039;52.168;9.866;2023-03-15T04:59:52;100169.78;;;2.69;84.92
13934;BME280;7039;52.168;9.866;2023-03-15T05:02:20;100178.00;;;2.84;84.25
13934;BME280;7039;52.168;9.866;2023-03-15T05:04:46;100168.31;;;2.58;84.33
13934;BME280;7039;52.168;9.866;2023-03-15T05:07:13;100179.09;;;2.75;84.01
13934;BME280;7039;52.168;9.866;2023-03-15T05:09:40;100184.78;;;2.89;83.76
13934;BME280;7039;52.168;9.866;2023-03-15T05:12:06;100192.53;;;2.88;83.50
13934;BME280;7039;52.168;9.866;2023-03-15T05:14:33;100189.22;;;2.83;83.72
13934;BME280;7039;52.168;9.866;2023-03-15T05:16:59;100192.69;;;2.82;83.98
13934;BME280;7039;52.168;9.866;2023-03-15T05:19:27;100203.50;;;2.96;83.60
13934;BME280;7039;52.168;9.866;2023-03-15T05:21:54;100212.81;;;3.02;83.33
13934;BME280;7039;52.168;9.866;2023-03-15T05:24:21;100213.00;;;2.94;83.26
13934;BME280;7039;52.168;9.866;2023-03-15T05:26:47;100216.47;;;2.93;83.57
13934;BME280;7039;52.168;9.866;2023-03-15T05:29:14;100212.88;;;3.00;83.35
13934;BME280;7039;52.168;9.866;2023-03-15T05:31:40;100218.88;;;2.99;83.63
13934;BME280;7039;52.168;9.866;2023-03-15T05:34:07;100226.94;;;2.85;84.04
13934;BME280;7039;52.168;9.866;2023-03-15T05:36:35;100231.22;;;2.86;84.37
13934;BME280;7039;52.168;9.866;2023-03-15T05:39:01;100234.22;;;3.05;83.39
13934;BME280;7039;52.168;9.866;2023-03-15T05:41:28;100240.19;;;3.07;83.52
13934;BME280;7039;52.168;9.866;2023-03-15T05:43:55;100242.03;;;3.01;83.65
13934;BME280;7039;52.168;9.866;2023-03-15T05:46:22;100252.03;;;3.14;83.31
13934;BME280;7039;52.168;9.866;2023-03-15T05:48:48;100255.00;;;2.98;83.68
13934;BME280;7039;52.168;9.866;2023-03-15T05:51:15;100258.88;;;3.16;83.16
13934;BME280;7039;52.168;9.866;2023-03-15T05:53:43;100271.50;;;3.26;82.69
13934;BME280;7039;52.168;9.866;2023-03-15T05:56:09;100266.88;;;3.05;82.38
13934;BME280;7039;52.168;9.866;2023-03-15T05:58:36;100279.59;;;3.48;81.35
13934;BME280;7039;52.168;9.866;2023-03-15T06:01:03;100273.88;;;3.35;81.07
13934;BME280;7039;52.168;9.866;2023-03-15T06:03:30;100277.50;;;3.27;80.95
13934;BME280;7039;52.168;9.866;2023-03-15T06:05:56;100278.66;;;3.15;81.40
13934;BME280;7039;52.168;9.866;2023-03-15T06:08:23;100282.22;;;3.09;81.49
13934;BME280;7039;52.168;9.866;2023-03-15T06:10:51;100287.41;;;3.08;81.89
13934;BME280;7039;52.168;9.866;2023-03-15T06:13:18;100286.31;;;3.18;81.85
13934;BME280;7039;52.168;9.866;2023-03-15T06:15:45;100297.47;;;3.19;82.54
13934;BME280;7039;52.168;9.866;2023-03-15T06:18:12;100298.13;;;3.27;81.96
13934;BME280;7039;52.168;9.866;2023-03-15T06:20:38;100293.88;;;3.26;82.26
13934;BME280;7039;52.168;9.866;2023-03-15T06:23:05;100306.72;;;3.27;81.76
13934;BME280;7039;52.168;9.866;2023-03-15T06:25:31;100320.13;;;3.43;81.05
13934;BME280;7039;52.168;9.866;2023-03-15T06:27:59;100324.50;;;3.38;80.95
13934;BME280;7039;52.168;9.866;2023-03-15T06:30:26;100334.97;;;3.69;80.35
13934;BME280;7039;52.168;9.866;2023-03-15T06:32:53;100337.19;;;3.47;80.13
13934;BME280;7039;52.168;9.866;2023-03-15T06:35:19;100332.47;;;3.66;79.92
13934;BME280;7039;52.168;9.866;2023-03-15T06:37:46;100336.25;;;3.51;80.17
13934;BME280;7039;52.168;9.866;2023-03-15T06:40:13;100342.72;;;3.68;80.13
13934;BME280;7039;52.168;9.866;2023-03-15T06:42:40;100343.94;;;3.53;79.75
13934;BME280;7039;52.168;9.866;2023-03-15T06:45:09;100350.03;;;3.50;80.58
13934;BME280;7039;52.168;9.866;2023-03-15T06:47:35;100356.13;;;3.46;80.41
13934;BME280;7039;52.168;9.866;2023-03-15T06:50:02;100365.19;;;3.63;80.57
13934;BME280;7039;52.168;9.866;2023-03-15T06:52:29;100359.22;;;3.61;79.96
13934;BME280;7039;52.168;9.866;2023-03-15T06:54:55;100372.06;;;3.64;80.19
13934;BME280;7039;52.168;9.866;2023-03-15T06:57:22;100368.69;;;3.60;80.42
13934;BME280;7039;52.168;9.866;2023-03-15T06:59:48;100375.28;;;3.73;79.63
13934;BME280;7039;52.168;9.866;2023-03-15T07:02:17;100384.19;;;3.97;79.21
13934;BME280;7039;52.168;9.866;2023-03-15T07:04:44;100381.72;;;3.93;79.15
13934;BME280;7039;52.168;9.866;2023-03-15T07:07:11;100386.66;;;4.02;79.44
13934;BME280;7039;52.168;9.866;2023-03-15T07:09:37;100389.22;;;4.02;79.30
13934;BME280;7039;52.168;9.866;2023-03-15T07:12:05;100393.16;;;3.81;80.12
13934;BME280;7039;52.168;9.866;2023-03-15T07:14:32;100401.06;;;3.73;80.13
13934;BME280;7039;52.168;9.866;2023-03-15T07:16:59;100402.16;;;3.63;80.49
13934;BME280;7039;52.168;9.866;2023-03-15T07:19:27;100399.13;;;3.83;80.45
13934;BME280;7039;52.168;9.866;2023-03-15T07:21:53;100405.91;;;3.87;80.53
13934;BME280;7039;52.168;9.866;2023-03-15T07:24:19;100412.06;;;3.82;80.20
13934;BME280;7039;52.168;9.866;2023-03-15T07:26:46;100413.50;;;3.93;79.46
13934;BME280;7039;52.168;9.866;2023-03-15T07:29:12;100418.31;;;4.09;79.13
13934;BME280;7039;52.168;9.866;2023-03-15T07:31:39;100424.00;;;4.22;79.49
13934;BME280;7039;52.168;9.866;2023-03-15T07:34:05;100427.97;;;4.01;78.72
13934;BME280;7039;52.168;9.866;2023-03-15T07:36:33;100439.94;;;4.39;78.38
13934;BME280;7039;52.168;9.866;2023-03-15T07:38:59;100436.84;;;4.25;78.24
13934;BME280;7039;52.168;9.866;2023-03-15T07:41:26;100447.06;;;4.64;77.85
13934;BME280;7039;52.168;9.866;2023-03-15T07:43:53;100453.34;;;4.86;77.40
13934;BME280;7039;52.168;9.866;2023-03-15T07:46:19;100445.22;;;4.67;77.11
13934;BME280;7039;52.168;9.866;2023-03-15T07:48:46;100454.97;;;4.57;77.10
13934;BME280;7039;52.168;9.866;2023-03-15T07:51:12;100451.31;;;4.32;78.10
13934;BME280;7039;52.168;9.866;2023-03-15T07:53:40;100456.03;;;4.14;78.61
13934;BME280;7039;52.168;9.866;2023-03-15T07:56:07;100460.56;;;4.05;78.47
13934;BME280;7039;52.168;9.866;2023-03-15T07:58:34;100458.63;;;4.13;78.53
13934;BME280;7039;52.168;9.866;2023-03-15T08:01:00;100457.81;;;4.11;78.44
13934;BME280;7039;52.168;9.866;2023-03-15T08:03:27;100457.56;;;4.22;78.49
13934;BME280;7039;52.168;9.866;2023-03-15T08:05:53;100466.50;;;4.43;78.10
13934;BME280;7039;52.168;9.866;2023-03-15T08:08:20;100462.97;;;4.47;77.28
13934;BME280;7039;52.168;9.866;2023-03-15T08:10:47;100462.66;;;4.25;76.77
13934;BME280;7039;52.168;9.866;2023-03-15T08:13:14;100473.63;;;4.34;77.59
13934;BME280;7039;52.168;9.866;2023-03-15T08:15:44;100473.03;;;4.57;76.64
13934;BME280;7039;52.168;9.866;2023-03-15T08:18:11;100474.81;;;4.55;76.32
13934;BME280;7039;52.168;9.866;2023-03-15T08:20:37;100474.47;;;4.35;75.60
13934;BME280;7039;52.168;9.866;2023-03-15T08:23:03;100478.69;;;4.37;74.89
13934;BME280;7039;52.168;9.866;2023-03-15T08:25:30;100480.56;;;4.31;74.54
13934;BME280;7039;52.168;9.866;2023-03-15T08:27:59;100490.44;;;4.49;73.65
13934;BME280;7039;52.168;9.866;2023-03-15T08:30:25;100499.09;;;4.48;73.91
13934;BME280;7039;52.168;9.866;2023-03-15T08:32:52;100503.59;;;4.40;74.21
13934;BME280;7039;52.168;9.866;2023-03-15T08:35:20;100512.63;;;4.58;73.55
13934;BME280;7039;52.168;9.866;2023-03-15T08:37:47;100513.28;;;4.66;72.31
13934;BME280;7039;52.168;9.866;2023-03-15T08:40:14;100520.69;;;4.80;72.68
13934;BME280;7039;52.168;9.866;2023-03-15T08:42:43;100520.72;;;4.78;73.06
13934;BME280;7039;52.168;9.866;2023-03-15T08:45:11;100519.91;;;4.76;72.65
13934;BME280;7039;52.168;9.866;2023-03-15T08:47:39;100525.72;;;4.86;72.48
13934;BME280;7039;52.168;9.866;2023-03-15T08:50:07;100518.22;;;4.75;72.42
13934;BME280;7039;52.168;9.866;2023-03-15T08:52:35;100537.25;;;4.73;72.57
13934;BME280;7039;52.168;9.866;2023-03-15T08:55:01;100541.81;;;4.96;71.73
13934;BME280;7039;52.168;9.866;2023-03-15T08:57:29;100540.19;;;4.93;72.32
13934;BME280;7039;52.168;9.866;2023-03-15T08:59:58;100548.25;;;5.14;70.69
13934;BME280;7039;52.168;9.866;2023-03-15T09:02:27;100552.28;;;5.24;70.58
13934;BME280;7039;52.168;9.866;2023-03-15T09:04:53;100554.63;;;5.33;69.98
13934;BME280;7039;52.168;9.866;2023-03-15T09:07:20;100556.06;;;5.43;69.23
13934;BME280;7039;52.168;9.866;2023-03-15T09:09:46;100556.91;;;5.75;69.34
13934;BME280;7039;52.168;9.866;2023-03-15T09:12:14;100558.75;;;6.01;68.51
13934;BME280;7039;52.168;9.866;2023-03-15T09:14:41;100558.28;;;5.87;67.43
13934;BME280;7039;52.168;9.866;2023-03-15T09:17:08;100574.97;;;6.36;67.80
13934;BME280;7039;52.168;9.866;2023-03-15T11:01:29;100648.38;;;5.07;68.00
13934;BME280;7039;52.168;9.866;2023-03-15T12:33:17;100663.81;;;9.11;44.81
13934;BME280;7039;52.168;9.866;2023-03-15T12:35:46;100658.88;;;9.26;46.23
13934;BME280;7039;52.168;9.866;2023-03-15T12:38:25;100668.47;;;9.46;47.66
13934;BME280;7039;52.168;9.866;2023-03-15T12:41:06;100656.44;;;9.01;48.28
13934;BME280;7039;52.168;9.866;2023-03-15T12:47:14;100663.81;;;8.45;48.70
13934;BME280;7039;52.168;9.866;2023-03-15T12:50:36;100665.97;;;8.56;48.61
13934;BME280;7039;52.168;9.866;2023-03-15T12:53:14;100663.69;;;8.48;49.12
13934;BME280;7039;52.168;9.866;2023-03-15T12:55:46;100679.59;;;8.63;47.91
13934;BME280;7039;52.168;9.866;2023-03-15T12:58:15;100678.13;;;8.79;47.81
13934;BME280;7039;52.168;9.866;2023-03-15T13:01:28;100722.69;;;8.46;58.74
13934;BME280;7039;52.168;9.866;2023-03-15T13:04:24;100711.22;;;7.26;66.14
13934;BME280;7039;52.168;9.866;2023-03-15T13:17:41;100727.56;;;4.72;75.10
13934;BME280;7039;52.168;9.866;2023-03-15T13:27:02;100764.00;;;5.00;76.54
13934;BME280;7039;52.168;9.866;2023-03-15T13:35:12;100731.47;;;4.08;79.73
13934;BME280;7039;52.168;9.866;2023-03-15T13:38:43;100772.63;;;4.15;79.68
13934;BME280;7039;52.168;9.866;2023-03-15T13:41:40;100745.47;;;4.41;79.44
13934;BME280;7039;52.168;9.866;2023-03-15T13:54:32;100786.47;;;6.98;69.42
13934;BME280;7039;52.168;9.866;2023-03-15T14:00:04;100788.84;;;6.46;69.66
13934;BME280;7039;52.168;9.866;2023-03-15T14:02:51;100801.78;;;6.78;70.02
13934;BME280;7039;52.168;9.866;2023-03-15T14:08:21;100803.72;;;7.29;64.91
13934;BME280;7039;52.168;9.866;2023-03-15T14:34:35;100790.22;;;11.55;50.38
13934;BME280;7039;52.168;9.866;2023-03-15T14:37:37;100788.47;;;12.08;49.55
13934;BME280;7039;52.168;9.866;2023-03-15T14:42:43;100796.78;;;12.16;48.75
13934;BME280;7039;52.168;9.866;2023-03-15T14:45:24;100796.31;;;12.25;48.03
13934;BME280;7039;52.168;9.866;2023-03-15T15:19:27;100808.13;;;12.32;47.31
13934;BME280;7039;52.168;9.866;2023-03-15T15:21:56;100811.53;;;11.82;48.79
13934;BME280;7039;52.168;9.866;2023-03-15T15:24:31;100812.53;;;11.80;49.56
13934;BME280;7039;52.168;9.866;2023-03-15T15:27:45;100805.78;;;12.10;47.58
13934;BME280;7039;52.168;9.866;2023-03-15T15:30:41;100804.94;;;12.77;47.09
13934;BME280;7039;52.168;9.866;2023-03-15T15:35:56;100800.22;;;12.67;45.34
13934;BME280;7039;52.168;9.866;2023-03-15T15:53:59;100797.69;;;12.98;44.47
13934;BME280;7039;52.168;9.866;2023-03-15T16:19:05;100812.66;;;12.62;42.43
13934;BME280;7039;52.168;9.866;2023-03-15T16:21:53;100815.53;;;11.36;45.35
13934;BME280;7039;52.168;9.866;2023-03-15T16:24:44;100814.91;;;10.14;47.34
13934;BME280;7039;52.168;9.866;2023-03-15T16:27:27;100811.69;;;9.66;51.00
13934;BME280;7039;52.168;9.866;2023-03-15T16:30:20;100816.47;;;9.33;50.97
13934;BME280;7039;52.168;9.866;2023-03-15T16:32:50;100815.81;;;8.82;50.79
13934;BME280;7039;52.168;9.866;2023-03-15T16:35:37;100816.69;;;8.34;51.62
13934;BME280;7039;52.168;9.866;2023-03-15T16:39:02;100819.81;;;8.44;52.49
13934;BME280;7039;52.168;9.866;2023-03-15T16:41:49;100821.56;;;8.43;55.04
13934;BME280;7039;52.168;9.866;2023-03-15T16:44:18;100827.41;;;8.50;54.61
13934;BME280;7039;52.168;9.866;2023-03-15T16:46:48;100833.66;;;8.44;52.44
13934;BME280;7039;52.168;9.866;2023-03-15T16:49:18;100827.13;;;8.07;53.49
13934;BME280;7039;52.168;9.866;2023-03-15T16:54:36;100834.03;;;7.82;53.62
13934;BME280;7039;52.168;9.866;2023-03-15T17:01:14;100847.63;;;7.63;54.72
13934;BME280;7039;52.168;9.866;2023-03-15T17:13:55;100855.69;;;6.96;56.25
13934;BME280;7039;52.168;9.866;2023-03-15T17:16:24;100859.25;;;6.92;56.76
13934;BME280;7039;52.168;9.866;2023-03-15T17:18:51;100857.50;;;6.93;57.54
13934;BME280;7039;52.168;9.866;2023-03-15T17:21:19;100856.19;;;6.79;57.83
13934;BME280;7039;52.168;9.866;2023-03-15T17:23:49;100869.31;;;6.73;57.68
13934;BME280;7039;52.168;9.866;2023-03-15T17:26:18;100858.25;;;6.66;58.59
13934;BME280;7039;52.168;9.866;2023-03-15T17:28:46;100864.41;;;6.62;58.29
13934;BME280;7039;52.168;9.866;2023-03-15T17:31:16;100868.03;;;6.57;60.05
13934;BME280;7039;52.168;9.866;2023-03-15T17:33:43;100876.50;;;6.63;59.87
13934;BME280;7039;52.168;9.866;2023-03-15T17:36:11;100878.66;;;6.47;60.47
13934;BME280;7039;52.168;9.866;2023-03-15T17:38:39;100880.19;;;6.55;61.98
13934;BME280;7039;52.168;9.866;2023-03-15T17:41:16;100888.88;;;6.52;61.92
13934;BME280;7039;52.168;9.866;2023-03-15T17:43:43;100887.66;;;6.33;60.84
13934;BME280;7039;52.168;9.866;2023-03-15T17:46:10;100889.75;;;6.18;60.38
13934;BME280;7039;52.168;9.866;2023-03-15T17:48:38;100895.28;;;6.39;61.06
13934;BME280;7039;52.168;9.866;2023-03-15T17:51:05;100893.91;;;6.24;63.19
13934;BME280;7039;52.168;9.866;2023-03-15T17:53:32;100894.16;;;6.15;64.04
13934;BME280;7039;52.168;9.866;2023-03-15T17:56:07;100892.38;;;6.17;63.79
13934;BME280;7039;52.168;9.866;2023-03-15T17:58:33;100889.91;;;6.12;64.16
13934;BME280;7039;52.168;9.866;2023-03-15T18:01:00;100900.56;;;6.00;64.64
13934;BME280;7039;52.168;9.866;2023-03-15T18:03:29;100897.31;;;5.90;65.18
13934;BME280;7039;52.168;9.866;2023-03-15T18:05:57;100905.16;;;5.87;65.05
13934;BME280;7039;52.168;9.866;2023-03-15T18:08:25;100909.66;;;5.79;65.20
13934;BME280;7039;52.168;9.866;2023-03-15T18:10:52;100907.56;;;5.57;66.07
13934;BME280;7039;52.168;9.866;2023-03-15T18:13:20;100912.75;;;5.56;65.56
13934;BME280;7039;52.168;9.866;2023-03-15T18:15:47;100913.56;;;5.59;65.65
13934;BME280;7039;52.168;9.866;2023-03-15T18:18:15;100909.31;;;5.55;65.63
13934;BME280;7039;52.168;9.866;2023-03-15T18:20:43;100912.00;;;5.52;66.01
13934;BME280;7039;52.168;9.866;2023-03-15T18:23:12;100912.31;;;5.37;66.59
13934;BME280;7039;52.168;9.866;2023-03-15T18:25:44;100914.09;;;5.33;66.37
13934;BME280;7039;52.168;9.866;2023-03-15T18:28:28;100915.13;;;5.26;66.88
13934;BME280;7039;52.168;9.866;2023-03-15T18:30:55;100918.50;;;5.30;67.03
13934;BME280;7039;52.168;9.866;2023-03-15T18:33:21;100926.41;;;5.22;67.26
13934;BME280;7039;52.168;9.866;2023-03-15T18:35:48;100918.84;;;5.13;67.34
13934;BME280;7039;52.168;9.866;2023-03-15T18:38:16;100921.34;;;5.17;67.17
13934;BME280;7039;52.168;9.866;2023-03-15T18:40:42;100921.66;;;5.02;67.50
13934;BME280;7039;52.168;9.866;2023-03-15T18:43:11;100932.88;;;4.99;67.97
13934;BME280;7039;52.168;9.866;2023-03-15T18:45:38;100927.94;;;4.89;68.29
13934;BME280;7039;52.168;9.866;2023-03-15T18:48:05;100928.03;;;4.84;68.31
13934;BME280;7039;52.168;9.866;2023-03-15T18:50:33;100926.41;;;4.78;68.01
13934;BME280;7039;52.168;9.866;2023-03-15T18:53:00;100918.75;;;4.72;68.30
13934;BME280;7039;52.168;9.866;2023-03-15T18:55:28;100924.75;;;4.76;68.25
13934;BME280;7039;52.168;9.866;2023-03-15T18:57:55;100919.75;;;4.67;68.59
13934;BME280;7039;52.168;9.866;2023-03-15T19:00:23;100925.09;;;4.57;69.20
13934;BME280;7039;52.168;9.866;2023-03-15T19:02:51;100926.91;;;4.52;68.90
13934;BME280;7039;52.168;9.866;2023-03-15T19:05:19;100924.09;;;4.63;68.73
13934;BME280;7039;52.168;9.866;2023-03-15T19:07:45;100932.66;;;4.68;67.96
13934;BME280;7039;52.168;9.866;2023-03-15T19:10:15;100929.25;;;4.65;67.91
13934;BME280;7039;52.168;9.866;2023-03-15T19:12:45;100926.66;;;4.65;68.43
13934;BME280;7039;52.168;9.866;2023-03-15T19:15:12;100929.41;;;4.57;68.12
13934;BME280;7039;52.168;9.866;2023-03-15T19:17:58;100926.00;;;4.53;68.25